Time;durP1;ratioP1;P1;durP2;ratioP2;P2;SDS_P1;SDS_P2;PMS_P1;PMS_P2;Temp;Humidity;BMP_temperature;BMP_pressure;BME280_temperature;BME280_humidity;BME280_pressure;Samples;Min_cycle;Max_cycle;Signal;HPM_P1;HPM_P2
2021/07/19 03:50:58;;;;;;;8.60;6.70;;;;;;;16.94;72.48;100160.97;5027502;28;106732;-69
2021/07/19 03:53:25;;;;;;;10.73;7.05;;;;;;;17.17;72.65;100158.59;5026492;28;106092;-69
2021/07/19 03:55:51;;;;;;;13.90;7.25;;;;;;;17.31;72.40;100166.59;5023652;27;106473;-71
2021/07/19 03:58:17;;;;;;;17.33;8.05;;;;;;;17.40;72.55;100162.59;5025551;27;105902;-72
2021/07/19 04:00:43;;;;;;;13.60;7.45;;;;;;;17.49;72.71;100153.22;5025200;27;106105;-72
2021/07/19 04:04:16;;;;;;;13.90;7.45;;;;;;;17.59;72.54;100156.28;5026607;28;105935;-74
2021/07/19 04:06:05;;;;;;;11.95;7.25;;;;;;;17.74;72.97;100157.81;5019671;27;106237;-73
2021/07/19 04:08:35;;;;;;;10.00;6.97;;;;;;;17.93;73.09;100159.59;5024831;27;105921;-73
2021/07/19 04:11:01;;;;;;;10.65;6.82;;;;;;;18.09;72.82;100160.09;5025330;27;106665;-72
2021/07/19 04:13:29;;;;;;;10.82;6.78;;;;;;;18.20;72.64;100156.66;5025771;27;106128;-73
2021/07/19 04:15:56;;;;;;;11.10;6.53;;;;;;;18.30;72.65;100156.13;5024886;27;106208;-72
2021/07/19 04:18:22;;;;;;;10.80;6.50;;;;;;;18.41;72.48;100154.59;5024717;28;106596;-73
2021/07/19 04:20:49;;;;;;;11.82;6.45;;;;;;;18.56;72.63;100163.16;5024855;28;106082;-72
2021/07/19 04:23:15;;;;;;;11.40;6.97;;;;;;;18.71;72.39;100156.56;5025490;28;105901;-69
2021/07/19 04:25:44;;;;;;;11.15;7.13;;;;;;;18.84;72.19;100161.81;5024951;27;105974;-72
2021/07/19 04:28:09;;;;;;;15.20;6.45;;;;;;;18.94;71.80;100159.44;5024680;27;106137;-71
2021/07/19 04:30:36;;;;;;;15.93;7.85;;;;;;;19.03;71.72;100164.53;5024223;27;106245;-71
2021/07/19 04:33:04;;;;;;;15.07;7.28;;;;;;;19.13;71.73;100164.81;5024851;27;106041;-73
2021/07/19 04:35:30;;;;;;;14.02;6.13;;;;;;;19.22;71.42;100160.75;5024557;28;106229;-74
2021/07/19 04:37:56;;;;;;;16.80;7.28;;;;;;;19.33;71.36;100163.72;5024146;27;106665;-75
2021/07/19 04:40:26;;;;;;;13.65;7.47;;;;;;;19.45;71.55;100153.78;5024132;27;106283;-73
2021/07/19 04:42:53;;;;;;;15.85;7.68;;;;;;;19.62;71.08;100157.47;5025619;27;106102;-74
2021/07/19 04:45:20;;;;;;;16.83;6.20;;;;;;;19.72;70.74;100156.91;5022017;27;106250;-73
2021/07/19 04:47:49;;;;;;;11.40;5.80;;;;;;;19.83;70.55;100166.13;5012841;28;106058;-75
2021/07/19 04:50:18;;;;;;;11.85;6.30;;;;;;;19.92;70.13;100166.63;5019232;28;106265;-73
2021/07/19 04:52:45;;;;;;;18.30;6.80;;;;;;;19.99;69.82;100164.63;5005043;28;106082;-72
2021/07/19 04:55:17;;;;;;;12.93;6.25;;;;;;;20.13;69.84;100173.34;5004405;28;106151;-74
2021/07/19 04:57:44;;;;;;;13.48;5.45;;;;;;;20.24;69.62;100167.13;5004093;28;107775;-73
2021/07/19 05:00:10;;;;;;;10.70;5.75;;;;;;;20.36;69.39;100167.13;5003224;28;106035;-76
2021/07/19 05:02:39;;;;;;;14.38;6.00;;;;;;;20.51;69.20;100160.41;4991545;28;106067;-73
2021/07/19 05:05:05;;;;;;;12.82;6.88;;;;;;;20.60;68.44;100156.28;4991049;28;106098;-75
2021/07/19 05:07:32;;;;;;;11.88;6.22;;;;;;;20.66;68.00;100157.22;4991050;28;105884;-73
2021/07/19 05:10:01;;;;;;;10.95;5.57;;;;;;;20.71;67.86;100154.63;4990850;28;105918;-74
2021/07/19 05:12:29;;;;;;;11.32;5.93;;;;;;;20.78;67.55;100152.63;4993773;28;106222;-74
2021/07/19 05:14:55;;;;;;;10.80;5.78;;;;;;;20.88;67.48;100152.84;4990635;28;106224;-73
2021/07/19 05:17:21;;;;;;;10.23;6.47;;;;;;;20.95;67.27;100148.13;5002125;28;106377;-72
2021/07/19 05:19:47;;;;;;;7.53;5.47;;;;;;;21.07;67.21;100147.25;5010368;28;106006;-72
2021/07/19 05:22:15;;;;;;;11.07;6.38;;;;;;;21.15;66.59;100141.44;5011204;28;106003;-71
2021/07/19 05:24:41;;;;;;;9.27;6.30;;;;;;;21.18;66.32;100146.38;5010381;28;106174;-72
2021/07/19 05:27:08;;;;;;;9.95;6.07;;;;;;;21.19;66.10;100134.50;4997199;28;106290;-80
2021/07/19 05:29:34;;;;;;;11.85;5.85;;;;;;;21.22;65.81;100149.44;4990578;28;106118;-80
2021/07/19 05:32:01;;;;;;;11.88;6.15;;;;;;;21.27;65.78;100150.34;4990052;28;106159;-73
2021/07/19 05:34:26;;;;;;;9.55;6.05;;;;;;;21.36;65.72;100147.25;4989150;28;106297;-71
2021/07/19 05:36:51;;;;;;;9.52;5.47;;;;;;;21.40;65.64;100143.00;4993942;28;106852;-70
2021/07/19 05:39:17;;;;;;;10.13;5.43;;;;;;;21.32;64.75;100151.50;5010290;28;108338;-74
2021/07/19 05:41:42;;;;;;;9.18;5.68;;;;;;;21.33;64.87;100159.41;5009519;28;106017;-72
2021/07/19 05:44:10;;;;;;;11.05;6.32;;;;;;;21.45;64.98;100164.78;5010628;28;106166;-75
2021/07/19 05:46:36;;;;;;;10.27;5.78;;;;;;;21.61;65.02;100164.00;5010057;28;105967;-73
2021/07/19 05:49:02;;;;;;;11.43;6.70;;;;;;;21.77;64.23;100166.97;4998204;28;106740;-71
2021/07/19 05:51:27;;;;;;;10.57;6.28;;;;;;;21.90;64.24;100172.09;5002551;28;105992;-71
2021/07/19 05:53:52;;;;;;;9.50;5.50;;;;;;;22.11;64.15;100165.09;5008993;28;106092;-73
2021/07/19 05:56:17;;;;;;;13.75;6.97;;;;;;;22.19;63.25;100160.34;5009651;28;105929;-76
2021/07/19 05:58:43;;;;;;;13.93;6.30;;;;;;;22.24;63.05;100161.22;5009860;28;105971;-71
2021/07/19 06:01:08;;;;;;;9.00;6.05;;;;;;;22.24;62.10;100158.50;5010791;28;105943;-71
2021/07/19 06:03:34;;;;;;;12.13;6.80;;;;;;;22.10;61.79;100151.78;5009814;28;105972;-76
2021/07/19 06:05:59;;;;;;;14.32;6.28;;;;;;;22.13;62.32;100162.16;5009077;28;106133;-74
2021/07/19 06:08:24;;;;;;;11.25;6.10;;;;;;;22.29;62.64;100166.72;5009341;28;106059;-76
2021/07/19 06:10:50;;;;;;;9.38;6.03;;;;;;;22.39;61.42;100176.09;5010384;28;106591;-72
2021/07/19 06:13:15;;;;;;;13.57;6.70;;;;;;;22.40;61.23;100178.56;5008679;28;106115;-73
2021/07/19 06:15:40;;;;;;;9.90;5.75;;;;;;;22.56;61.25;100182.31;5008693;28;106448;-72
2021/07/19 06:18:06;;;;;;;9.48;5.40;;;;;;;22.84;61.20;100177.00;5007351;28;106159;-77
2021/07/19 06:20:31;;;;;;;11.52;5.93;;;;;;;23.05;60.02;100183.50;4998651;28;106326;-71
2021/07/19 06:23:02;;;;;;;10.00;6.63;;;;;;;23.10;59.49;100183.53;5009742;28;106343;-78
2021/07/19 06:25:36;;;;;;;13.02;8.98;;;;;;;23.09;59.13;100179.22;5009776;28;106045;-75
2021/07/19 06:28:04;;;;;;;8.57;5.32;;;;;;;23.20;59.09;100175.56;5009313;28;106135;-81
2021/07/19 06:30:29;;;;;;;11.10;5.55;;;;;;;23.37;58.52;100180.09;5009691;28;105975;-72
2021/07/19 06:32:56;;;;;;;9.13;5.40;;;;;;;23.41;58.16;100175.78;5009560;28;106138;-67
2021/07/19 06:35:21;;;;;;;8.68;4.88;;;;;;;23.41;57.40;100184.75;5009071;28;106305;-70
2021/07/19 06:37:47;;;;;;;8.70;5.40;;;;;;;23.51;57.85;100162.28;5009125;28;105905;-72
2021/07/19 06:40:13;;;;;;;8.43;5.28;;;;;;;23.67;57.09;100163.25;5009687;28;106112;-73
2021/07/19 06:42:38;;;;;;;7.65;5.47;;;;;;;23.72;56.26;100166.00;5009252;28;106708;-69
2021/07/19 06:45:06;;;;;;;10.02;5.40;;;;;;;23.66;55.57;100169.75;5008965;28;105851;-71
2021/07/19 06:47:31;;;;;;;8.98;5.72;;;;;;;23.58;55.10;100170.22;5008713;28;106054;-70
2021/07/19 06:49:57;;;;;;;15.13;6.13;;;;;;;23.48;55.27;100181.81;5008989;28;105953;-70
2021/07/19 06:52:23;;;;;;;12.13;5.85;;;;;;;23.44;55.66;100178.81;5009331;28;106249;-75
2021/07/19 06:54:48;;;;;;;10.13;5.80;;;;;;;23.53;55.58;100167.47;5008328;28;107709;-77
2021/07/19 06:57:14;;;;;;;9.55;5.82;;;;;;;23.73;55.68;100172.25;5009065;28;105910;-75
2021/07/19 06:59:39;;;;;;;10.15;5.47;;;;;;;24.13;56.06;100169.09;5009960;28;105881;-73
2021/07/19 07:02:04;;;;;;;9.18;6.05;;;;;;;24.64;55.62;100167.78;5008889;28;106147;-74
2021/07/19 07:04:30;;;;;;;11.52;5.15;;;;;;;24.96;53.76;100173.13;5008440;28;106788;-72
2021/07/19 07:06:56;;;;;;;11.98;6.43;;;;;;;25.19;53.15;100171.00;5008188;28;106098;-75
2021/07/19 07:09:22;;;;;;;9.43;5.57;;;;;;;25.32;51.72;100181.41;5009524;28;106082;-74
2021/07/19 07:11:47;;;;;;;13.73;5.78;;;;;;;25.48;51.29;100184.22;5008995;28;106237;-74
2021/07/19 07:14:12;;;;;;;8.20;4.93;;;;;;;25.64;51.44;100182.31;5006798;28;106630;-73
2021/07/19 07:16:38;;;;;;;11.30;5.55;;;;;;;25.75;50.94;100177.69;5006780;28;106108;-76
2021/07/19 07:19:03;;;;;;;9.82;6.15;;;;;;;25.85;50.30;100170.31;5008541;28;106087;-77
2021/07/19 07:21:32;;;;;;;12.63;5.63;;;;;;;25.91;49.75;100167.59;5008727;28;106112;-78
2021/07/19 07:23:57;;;;;;;9.00;5.15;;;;;;;25.83;49.22;100163.50;5008161;28;106421;-75
2021/07/19 07:26:26;;;;;;;8.48;5.50;;;;;;;25.63;48.79;100165.13;5008093;28;106066;-73
2021/07/19 07:28:51;;;;;;;10.68;5.70;;;;;;;25.55;49.34;100162.94;5009041;28;105998;-79
2021/07/19 07:31:17;;;;;;;10.38;5.93;;;;;;;25.65;49.61;100153.94;5007977;28;106162;-74
2021/07/19 07:33:43;;;;;;;13.07;5.15;;;;;;;25.85;49.33;100150.41;5007272;28;106066;-74
2021/07/19 07:36:08;;;;;;;13.10;6.57;;;;;;;25.99;48.92;100150.66;5005150;28;105932;-73
2021/07/19 07:38:34;;;;;;;10.50;6.05;;;;;;;26.10;48.74;100143.31;5008206;28;106259;-73
2021/07/19 07:40:59;;;;;;;10.80;4.85;;;;;;;26.40;48.09;100142.44;5008507;28;106353;-73
2021/07/19 07:43:25;;;;;;;10.00;6.10;;;;;;;26.58;47.66;100146.47;5007837;28;105957;-71
2021/07/19 07:45:51;;;;;;;9.75;6.00;;;;;;;26.69;46.91;100148.06;5007762;28;105991;-70
2021/07/19 07:48:17;;;;;;;13.45;5.72;;;;;;;26.80;46.77;100148.88;5006577;28;105943;-70
2021/07/19 07:50:43;;;;;;;9.90;6.28;;;;;;;27.12;46.52;100149.53;5007948;28;106384;-70
2021/07/19 07:53:08;;;;;;;11.02;5.63;;;;;;;27.38;46.31;100146.69;5007450;28;106277;-75
2021/07/19 07:55:33;;;;;;;10.05;5.70;;;;;;;27.60;45.52;100151.72;5007514;28;106031;-74
2021/07/19 07:58:01;;;;;;;12.45;5.88;;;;;;;27.56;44.96;100159.69;5008700;28;106003;-76
2021/07/19 08:00:26;;;;;;;12.00;5.53;;;;;;;27.51;45.10;100157.78;5006973;28;106054;-73
2021/07/19 08:02:51;;;;;;;11.85;5.90;;;;;;;27.47;44.88;100155.91;5007218;28;106248;-73
2021/07/19 08:05:17;;;;;;;9.15;5.80;;;;;;;27.40;44.71;100152.69;5006160;28;106117;-76
2021/07/19 08:07:42;;;;;;;12.60;6.40;;;;;;;27.33;44.64;100156.53;5008661;28;105858;-74
2021/07/19 08:10:09;;;;;;;11.05;6.50;;;;;;;27.40;44.62;100147.22;5007970;28;105844;-71
2021/07/19 08:12:35;;;;;;;14.65;6.53;;;;;;;27.31;44.98;100147.81;5007882;28;105885;-71
2021/07/19 08:15:03;;;;;;;12.23;6.13;;;;;;;27.31;45.39;100150.53;5006154;28;108189;-74
2021/07/19 10:34:19;;;;;;;9.85;5.75;;;;;;;26.53;48.96;100214.78;4987096;28;106129;-69
2021/07/19 10:36:47;;;;;;;7.72;5.03;;;;;;;26.82;48.11;100209.53;4985647;28;106825;-70
2021/07/19 10:39:24;;;;;;;10.05;5.43;;;;;;;27.22;48.41;100208.84;4985246;28;106350;-69
2021/07/19 10:42:19;;;;;;;6.38;4.70;;;;;;;28.25;47.67;100213.63;4984723;28;107469;-68
2021/07/19 10:44:44;;;;;;;7.75;4.50;;;;;;;28.88;44.48;100209.97;4979474;28;106109;-70
2021/07/19 10:47:14;;;;;;;9.18;4.22;;;;;;;28.84;43.34;100214.41;4985715;28;105987;-70
2021/07/19 10:49:43;;;;;;;5.68;3.55;;;;;;;28.47;43.48;100215.88;4985116;28;105955;-69
2021/07/19 10:52:10;;;;;;;7.72;3.65;;;;;;;28.31;43.37;100218.78;4984571;28;105995;-70
2021/07/19 10:54:46;;;;;;;8.20;3.78;;;;;;;28.20;43.73;100209.03;4983015;28;107409;-69
2021/07/19 10:57:13;;;;;;;8.88;4.72;;;;;;;27.83;43.43;100210.38;4986075;28;105904;-70
2021/07/19 10:59:43;;;;;;;7.68;4.18;;;;;;;27.53;44.04;100207.59;4985215;28;106166;-70
2021/07/19 11:02:09;;;;;;;6.45;4.00;;;;;;;27.50;44.30;100210.06;4983484;28;105926;-69
2021/07/19 11:04:45;;;;;;;11.07;4.22;;;;;;;27.40;43.87;100207.41;4984555;28;106072;-69
2021/07/19 11:07:11;;;;;;;9.20;4.15;;;;;;;27.28;44.40;100213.16;4985987;28;106212;-71
2021/07/19 11:09:39;;;;;;;7.93;4.45;;;;;;;27.15;44.21;100204.47;4984690;28;106893;-72
2021/07/19 11:12:22;;;;;;;6.00;4.25;;;;;;;26.91;44.54;100192.56;4984363;28;107925;-72
2021/07/19 11:14:55;;;;;;;9.63;4.75;;;;;;;26.63;44.88;100198.38;4984380;28;106380;-75
2021/07/19 11:17:21;;;;;;;8.60;4.10;;;;;;;26.43;44.90;100201.16;4984024;28;105922;-71
2021/07/19 11:19:49;;;;;;;8.52;4.32;;;;;;;26.22;44.99;100200.34;4983080;28;105973;-73
2021/07/19 11:22:27;;;;;;;6.53;4.13;;;;;;;26.03;45.18;100200.91;4978956;28;106915;-72
2021/07/19 11:25:09;;;;;;;13.77;4.88;;;;;;;25.82;45.06;100202.78;4964466;28;106046;-70
2021/07/19 11:27:37;;;;;;;32.30;17.95;;;;;;;25.55;45.37;100187.50;4965277;28;105892;-71
2021/07/19 11:30:23;;;;;;;8.38;4.85;;;;;;;25.30;45.40;100194.50;4963437;28;106106;-69
2021/07/19 11:32:50;;;;;;;11.15;4.35;;;;;;;25.26;45.78;100193.41;4963762;28;106872;-68
2021/07/19 11:35:22;;;;;;;8.88;4.25;;;;;;;25.43;45.29;100195.09;4963955;28;106622;-68
2021/07/19 11:37:50;;;;;;;7.93;4.38;;;;;;;25.55;45.15;100192.94;4965220;28;105960;-72
2021/07/19 11:40:37;;;;;;;9.43;4.38;;;;;;;25.90;45.45;100194.03;4964317;28;106389;-69
2021/07/19 11:43:10;;;;;;;8.98;4.53;;;;;;;26.60;44.83;100193.47;4964483;28;106652;-72
2021/07/19 11:45:40;;;;;;;7.65;5.20;;;;;;;27.32;43.30;100195.91;4951227;28;105895;-73
2021/07/19 11:48:07;;;;;;;9.90;4.32;;;;;;;27.59;42.10;100189.22;4954086;28;105976;-72
2021/07/19 11:50:32;;;;;;;8.95;4.55;;;;;;;27.78;41.66;100185.81;4970801;28;106166;-72
2021/07/19 11:52:58;;;;;;;7.57;4.28;;;;;;;28.25;40.90;100183.50;4970451;28;107329;-72
2021/07/19 11:55:24;;;;;;;9.30;4.13;;;;;;;28.54;40.36;100178.81;4970526;28;107019;-72
2021/07/19 11:57:55;;;;;;;9.77;4.50;;;;;;;28.81;39.21;100171.13;4971403;28;106005;-72
2021/07/19 12:00:29;;;;;;;6.88;3.72;;;;;;;29.09;38.91;100177.63;4970941;28;105921;-73
2021/07/19 12:03:00;;;;;;;7.03;4.20;;;;;;;29.18;38.49;100170.38;4970135;28;105941;-74
2021/07/19 12:05:25;;;;;;;9.10;4.15;;;;;;;29.61;37.95;100169.50;4970292;28;105854;-77
2021/07/19 12:08:02;;;;;;;8.98;4.10;;;;;;;29.83;37.62;100162.56;4971007;28;105945;-72
2021/07/19 12:10:29;;;;;;;10.70;3.92;;;;;;;30.03;37.23;100156.75;4969270;28;106265;-75
2021/07/19 12:12:55;;;;;;;7.55;4.07;;;;;;;30.07;36.87;100150.66;4970375;28;106013;-70
2021/07/19 12:15:20;;;;;;;8.02;3.92;;;;;;;30.00;37.17;100156.53;4970503;28;105908;-70
2021/07/19 12:17:46;;;;;;;7.00;4.07;;;;;;;30.07;36.97;100156.13;4971200;28;106971;-70
2021/07/19 12:20:12;;;;;;;9.13;4.40;;;;;;;30.01;36.29;100160.91;4970487;28;105787;-70
2021/07/19 12:22:38;;;;;;;8.32;3.95;;;;;;;29.65;36.24;100148.56;4970066;28;106180;-68
2021/07/19 12:25:06;;;;;;;9.13;3.95;;;;;;;29.19;36.67;100154.72;4970187;28;106042;-69
2021/07/19 12:27:31;;;;;;;9.35;4.00;;;;;;;28.61;37.10;100148.31;4971199;28;105857;-69
2021/07/19 12:29:57;;;;;;;6.75;4.20;;;;;;;28.28;37.77;100150.88;4970581;28;106199;-69
2021/07/19 12:32:22;;;;;;;9.52;4.30;;;;;;;28.22;37.87;100143.81;4969268;28;106083;-69
2021/07/19 12:34:47;;;;;;;15.02;4.47;;;;;;;28.12;37.69;100152.94;4968647;28;106293;-70
2021/07/19 12:37:16;;;;;;;9.95;5.05;;;;;;;28.18;37.69;100140.81;4969989;28;106074;-70
2021/07/19 12:39:42;;;;;;;8.63;4.57;;;;;;;28.28;37.45;100150.06;4969908;28;105982;-76
2021/07/19 12:42:10;;;;;;;7.63;4.10;;;;;;;28.49;36.87;100143.25;4969525;28;106162;-70
2021/07/19 12:44:36;;;;;;;6.97;4.75;;;;;;;28.74;36.59;100146.00;4969466;28;106115;-68
2021/07/19 12:47:03;;;;;;;7.50;4.03;;;;;;;29.18;35.87;100142.94;4971158;28;105910;-69
2021/07/19 12:49:28;;;;;;;10.18;4.30;;;;;;;29.38;35.70;100139.09;4969695;28;106227;-69
2021/07/19 12:52:21;;;;;;;11.60;4.75;;;;;;;29.26;35.54;100141.47;4969839;28;105918;-71
2021/07/19 12:54:54;;;;;;;7.25;4.28;;;;;;;28.97;36.13;100153.38;4967697;28;106058;-71
2021/07/19 12:57:20;;;;;;;8.05;4.53;;;;;;;28.65;36.66;100135.69;4969701;28;106148;-75
